sensor_id;sensor_type;location;lat;lon;timestamp;P1;durP1;ratioP1;P2;durP2;ratioP2
64351;SDS011;50680;52.626;-8.668;2022-12-08T00:01:19;41.67;;;17.45;;
64351;SDS011;50680;52.626;-8.668;2022-12-08T00:03:48;29.63;;;16.42;;
64351;SDS011;50680;52.626;-8.668;2022-12-08T00:06:26;36.65;;;19.52;;
64351;SDS011;50680;52.626;-8.668;2022-12-08T00:09:17;36.58;;;19.20;;
64351;SDS011;50680;52.626;-8.668;2022-12-08T00:11:53;36.47;;;16.92;;
64351;SDS011;50680;52.626;-8.668;2022-12-08T00:14:26;26.88;;;14.63;;
64351;SDS011;50680;52.626;-8.668;2022-12-08T00:16:55;30.85;;;15.68;;
64351;SDS011;50680;52.626;-8.668;2022-12-08T00:19:23;35.15;;;17.33;;
64351;SDS011;50680;52.626;-8.668;2022-12-08T00:21:51;27.60;;;14.55;;
64351;SDS011;50680;52.626;-8.668;2022-12-08T00:24:19;27.77;;;14.95;;
64351;SDS011;50680;52.626;-8.668;2022-12-08T00:26:47;25.33;;;13.00;;
64351;SDS011;50680;52.626;-8.668;2022-12-08T00:29:14;22.83;;;12.20;;
64351;SDS011;50680;52.626;-8.668;2022-12-08T00:31:43;23.77;;;12.82;;
64351;SDS011;50680;52.626;-8.668;2022-12-08T00:34:10;24.52;;;13.15;;
64351;SDS011;50680;52.626;-8.668;2022-12-08T00:36:41;26.00;;;13.32;;
64351;SDS011;50680;52.626;-8.668;2022-12-08T00:39:08;29.42;;;14.77;;
64351;SDS011;50680;52.626;-8.668;2022-12-08T00:41:36;30.75;;;15.18;;
64351;SDS011;50680;52.626;-8.668;2022-12-08T00:44:22;36.85;;;16.10;;
64351;SDS011;50680;52.626;-8.668;2022-12-08T00:46:48;28.05;;;14.93;;
64351;SDS011;50680;52.626;-8.668;2022-12-08T00:49:16;32.47;;;14.75;;
64351;SDS011;50680;52.626;-8.668;2022-12-08T00:51:43;32.42;;;13.70;;
64351;SDS011;50680;52.626;-8.668;2022-12-08T00:54:10;27.20;;;13.05;;
64351;SDS011;50680;52.626;-8.668;2022-12-08T00:56:37;33.97;;;15.40;;
64351;SDS011;50680;52.626;-8.668;2022-12-08T00:59:05;35.83;;;16.40;;
64351;SDS011;50680;52.626;-8.668;2022-12-08T01:01:33;38.53;;;17.58;;
64351;SDS011;50680;52.626;-8.668;2022-12-08T01:04:02;40.78;;;18.55;;
64351;SDS011;50680;52.626;-8.668;2022-12-08T01:06:35;52.25;;;22.20;;
64351;SDS011;50680;52.626;-8.668;2022-12-08T01:09:03;36.20;;;17.88;;
64351;SDS011;50680;52.626;-8.668;2022-12-08T01:11:31;34.47;;;16.80;;
64351;SDS011;50680;52.626;-8.668;2022-12-08T01:13:59;32.90;;;15.38;;
64351;SDS011;50680;52.626;-8.668;2022-12-08T01:16:29;33.92;;;16.35;;
64351;SDS011;50680;52.626;-8.668;2022-12-08T01:18:59;35.90;;;17.98;;
64351;SDS011;50680;52.626;-8.668;2022-12-08T01:21:26;38.38;;;17.05;;
64351;SDS011;50680;52.626;-8.668;2022-12-08T01:23:53;43.55;;;18.95;;
64351;SDS011;50680;52.626;-8.668;2022-12-08T01:26:20;52.65;;;23.15;;
64351;SDS011;50680;52.626;-8.668;2022-12-08T01:28:48;44.13;;;19.70;;
64351;SDS011;50680;52.626;-8.668;2022-12-08T01:31:15;46.47;;;20.27;;
64351;SDS011;50680;52.626;-8.668;2022-12-08T01:33:44;45.67;;;20.75;;
64351;SDS011;50680;52.626;-8.668;2022-12-08T01:36:22;46.88;;;21.50;;
64351;SDS011;50680;52.626;-8.668;2022-12-08T01:38:51;43.05;;;20.88;;
64351;SDS011;50680;52.626;-8.668;2022-12-08T01:41:20;48.15;;;20.13;;
64351;SDS011;50680;52.626;-8.668;2022-12-08T01:43:59;54.33;;;23.13;;
64351;SDS011;50680;52.626;-8.668;2022-12-08T01:46:29;64.72;;;23.52;;
64351;SDS011;50680;52.626;-8.668;2022-12-08T01:51:31;65.07;;;25.40;;
64351;SDS011;50680;52.626;-8.668;2022-12-08T01:54:01;54.70;;;25.23;;
64351;SDS011;50680;52.626;-8.668;2022-12-08T01:56:40;55.20;;;22.20;;
64351;SDS011;50680;52.626;-8.668;2022-12-08T01:59:09;59.72;;;25.20;;
64351;SDS011;50680;52.626;-8.668;2022-12-08T02:01:37;76.50;;;27.15;;
64351;SDS011;50680;52.626;-8.668;2022-12-08T02:04:07;88.82;;;27.85;;
64351;SDS011;50680;52.626;-8.668;2022-12-08T02:06:36;100.65;;;30.70;;
64351;SDS011;50680;52.626;-8.668;2022-12-08T02:09:07;89.15;;;28.88;;
64351;SDS011;50680;52.626;-8.668;2022-12-08T02:11:34;93.93;;;30.02;;
64351;SDS011;50680;52.626;-8.668;2022-12-08T02:14:02;80.78;;;29.02;;
64351;SDS011;50680;52.626;-8.668;2022-12-08T02:22:14;76.40;;;27.75;;
64351;SDS011;50680;52.626;-8.668;2022-12-08T02:27:21;95.30;;;28.08;;
64351;SDS011;50680;52.626;-8.668;2022-12-08T02:30:07;124.97;;;31.52;;
64351;SDS011;50680;52.626;-8.668;2022-12-08T02:35:38;90.80;;;31.15;;
64351;SDS011;50680;52.626;-8.668;2022-12-08T02:43:59;99.13;;;35.08;;
64351;SDS011;50680;52.626;-8.668;2022-12-08T02:46:44;106.60;;;33.35;;
64351;SDS011;50680;52.626;-8.668;2022-12-08T02:49:15;134.60;;;34.50;;
64351;SDS011;50680;52.626;-8.668;2022-12-08T02:51:42;216.80;;;42.50;;
64351;SDS011;50680;52.626;-8.668;2022-12-08T02:54:08;120.95;;;36.25;;
64351;SDS011;50680;52.626;-8.668;2022-12-08T03:02:05;98.75;;;32.50;;
64351;SDS011;50680;52.626;-8.668;2022-12-08T03:04:56;103.90;;;32.47;;
64351;SDS011;50680;52.626;-8.668;2022-12-08T03:07:30;102.75;;;30.02;;
64351;SDS011;50680;52.626;-8.668;2022-12-08T03:12:51;83.70;;;29.50;;
64351;SDS011;50680;52.626;-8.668;2022-12-08T03:15:27;92.18;;;29.48;;
64351;SDS011;50680;52.626;-8.668;2022-12-08T03:17:57;86.80;;;28.73;;
64351;SDS011;50680;52.626;-8.668;2022-12-08T03:20:26;80.05;;;27.35;;
64351;SDS011;50680;52.626;-8.668;2022-12-08T03:22:57;89.60;;;29.17;;
64351;SDS011;50680;52.626;-8.668;2022-12-08T03:25:26;80.90;;;30.70;;
64351;SDS011;50680;52.626;-8.668;2022-12-08T03:27:57;78.95;;;30.67;;
64351;SDS011;50680;52.626;-8.668;2022-12-08T03:30:25;80.63;;;29.50;;
64351;SDS011;50680;52.626;-8.668;2022-12-08T03:33:02;77.28;;;28.38;;
64351;SDS011;50680;52.626;-8.668;2022-12-08T03:35:33;78.30;;;27.42;;
64351;SDS011;50680;52.626;-8.668;2022-12-08T03:38:12;90.32;;;29.30;;
64351;SDS011;50680;52.626;-8.668;2022-12-08T03:40:40;84.45;;;28.30;;
64351;SDS011;50680;52.626;-8.668;2022-12-08T03:43:07;91.88;;;29.20;;
64351;SDS011;50680;52.626;-8.668;2022-12-08T03:45:35;91.95;;;30.98;;
64351;SDS011;50680;52.626;-8.668;2022-12-08T03:48:01;102.50;;;32.65;;
64351;SDS011;50680;52.626;-8.668;2022-12-08T03:50:28;108.68;;;35.28;;
64351;SDS011;50680;52.626;-8.668;2022-12-08T03:52:55;108.28;;;34.80;;
64351;SDS011;50680;52.626;-8.668;2022-12-08T03:55:22;90.45;;;30.70;;
64351;SDS011;50680;52.626;-8.668;2022-12-08T03:57:49;95.47;;;32.13;;
64351;SDS011;50680;52.626;-8.668;2022-12-08T04:00:15;92.68;;;31.50;;
64351;SDS011;50680;52.626;-8.668;2022-12-08T04:02:42;95.28;;;29.92;;
64351;SDS011;50680;52.626;-8.668;2022-12-08T04:05:09;96.55;;;29.80;;
64351;SDS011;50680;52.626;-8.668;2022-12-08T04:07:36;98.03;;;29.90;;
64351;SDS011;50680;52.626;-8.668;2022-12-08T04:10:03;98.45;;;29.38;;
64351;SDS011;50680;52.626;-8.668;2022-12-08T04:12:31;96.35;;;29.55;;
64351;SDS011;50680;52.626;-8.668;2022-12-08T04:14:57;97.13;;;28.58;;
64351;SDS011;50680;52.626;-8.668;2022-12-08T04:17:24;93.43;;;28.45;;
64351;SDS011;50680;52.626;-8.668;2022-12-08T04:19:51;103.15;;;28.95;;
64351;SDS011;50680;52.626;-8.668;2022-12-08T04:22:18;91.00;;;27.42;;
64351;SDS011;50680;52.626;-8.668;2022-12-08T04:24:44;89.22;;;26.65;;
64351;SDS011;50680;52.626;-8.668;2022-12-08T04:27:11;68.55;;;24.95;;
64351;SDS011;50680;52.626;-8.668;2022-12-08T04:29:38;77.82;;;25.50;;
64351;SDS011;50680;52.626;-8.668;2022-12-08T04:32:05;81.18;;;23.95;;
64351;SDS011;50680;52.626;-8.668;2022-12-08T04:34:31;81.45;;;24.13;;
64351;SDS011;50680;52.626;-8.668;2022-12-08T04:36:58;82.45;;;23.70;;
64351;SDS011;50680;52.626;-8.668;2022-12-08T04:39:25;68.85;;;23.30;;
64351;SDS011;50680;52.626;-8.668;2022-12-08T04:41:51;77.03;;;22.55;;
64351;SDS011;50680;52.626;-8.668;2022-12-08T04:44:18;68.25;;;22.52;;
64351;SDS011;50680;52.626;-8.668;2022-12-08T04:46:45;69.18;;;21.77;;
64351;SDS011;50680;52.626;-8.668;2022-12-08T04:49:12;72.22;;;22.83;;
64351;SDS011;50680;52.626;-8.668;2022-12-08T04:51:39;72.22;;;22.20;;
64351;SDS011;50680;52.626;-8.668;2022-12-08T04:54:05;72.57;;;23.42;;
64351;SDS011;50680;52.626;-8.668;2022-12-08T04:56:32;65.70;;;23.00;;
64351;SDS011;50680;52.626;-8.668;2022-12-08T04:58:59;58.13;;;19.20;;
64351;SDS011;50680;52.626;-8.668;2022-12-08T05:01:26;58.70;;;19.17;;
64351;SDS011;50680;52.626;-8.668;2022-12-08T05:03:53;50.65;;;17.13;;
64351;SDS011;50680;52.626;-8.668;2022-12-08T05:06:19;42.28;;;16.77;;
64351;SDS011;50680;52.626;-8.668;2022-12-08T05:08:46;40.38;;;14.80;;
64351;SDS011;50680;52.626;-8.668;2022-12-08T05:11:13;39.72;;;14.68;;
64351;SDS011;50680;52.626;-8.668;2022-12-08T05:13:40;38.83;;;15.48;;
64351;SDS011;50680;52.626;-8.668;2022-12-08T05:16:08;34.20;;;14.70;;
64351;SDS011;50680;52.626;-8.668;2022-12-08T05:18:36;40.20;;;16.10;;
64351;SDS011;50680;52.626;-8.668;2022-12-08T05:21:04;43.58;;;14.88;;
64351;SDS011;50680;52.626;-8.668;2022-12-08T05:23:32;40.25;;;15.38;;
64351;SDS011;50680;52.626;-8.668;2022-12-08T05:25:59;43.38;;;14.75;;
64351;SDS011;50680;52.626;-8.668;2022-12-08T05:28:26;35.30;;;14.05;;
64351;SDS011;50680;52.626;-8.668;2022-12-08T05:31:10;37.35;;;14.23;;
64351;SDS011;50680;52.626;-8.668;2022-12-08T05:33:38;34.10;;;13.70;;
64351;SDS011;50680;52.626;-8.668;2022-12-08T05:36:06;45.08;;;15.73;;
64351;SDS011;50680;52.626;-8.668;2022-12-08T05:38:33;37.67;;;14.35;;
64351;SDS011;50680;52.626;-8.668;2022-12-08T05:41:00;32.72;;;12.50;;
64351;SDS011;50680;52.626;-8.668;2022-12-08T05:43:27;33.55;;;12.73;;
64351;SDS011;50680;52.626;-8.668;2022-12-08T05:45:54;40.33;;;14.02;;
64351;SDS011;50680;52.626;-8.668;2022-12-08T05:48:21;33.90;;;14.40;;
64351;SDS011;50680;52.626;-8.668;2022-12-08T05:50:48;36.97;;;14.23;;
64351;SDS011;50680;52.626;-8.668;2022-12-08T05:53:16;33.72;;;13.35;;
64351;SDS011;50680;52.626;-8.668;2022-12-08T05:55:45;37.92;;;13.85;;
64351;SDS011;50680;52.626;-8.668;2022-12-08T05:58:13;34.92;;;11.70;;
64351;SDS011;50680;52.626;-8.668;2022-12-08T06:00:42;46.50;;;14.43;;
64351;SDS011;50680;52.626;-8.668;2022-12-08T06:03:10;35.22;;;15.35;;
64351;SDS011;50680;52.626;-8.668;2022-12-08T06:05:39;44.22;;;13.80;;
64351;SDS011;50680;52.626;-8.668;2022-12-08T06:08:06;36.40;;;14.18;;
64351;SDS011;50680;52.626;-8.668;2022-12-08T06:10:33;40.90;;;15.05;;
64351;SDS011;50680;52.626;-8.668;2022-12-08T06:13:00;45.13;;;15.05;;
64351;SDS011;50680;52.626;-8.668;2022-12-08T06:15:27;38.28;;;14.18;;
64351;SDS011;50680;52.626;-8.668;2022-12-08T06:17:54;34.75;;;14.20;;
64351;SDS011;50680;52.626;-8.668;2022-12-08T06:20:21;32.05;;;12.93;;
64351;SDS011;50680;52.626;-8.668;2022-12-08T06:22:47;36.50;;;13.13;;
64351;SDS011;50680;52.626;-8.668;2022-12-08T06:25:14;34.72;;;13.15;;
64351;SDS011;50680;52.626;-8.668;2022-12-08T06:27:41;35.65;;;13.43;;
64351;SDS011;50680;52.626;-8.668;2022-12-08T06:30:08;35.75;;;12.35;;
64351;SDS011;50680;52.626;-8.668;2022-12-08T06:32:35;32.70;;;11.27;;
64351;SDS011;50680;52.626;-8.668;2022-12-08T06:35:02;32.15;;;11.90;;
64351;SDS011;50680;52.626;-8.668;2022-12-08T06:37:29;31.73;;;12.05;;
64351;SDS011;50680;52.626;-8.668;2022-12-08T06:39:57;31.02;;;11.80;;
64351;SDS011;50680;52.626;-8.668;2022-12-08T06:42:24;31.23;;;11.30;;
64351;SDS011;50680;52.626;-8.668;2022-12-08T06:45:16;30.13;;;12.15;;
64351;SDS011;50680;52.626;-8.668;2022-12-08T06:47:43;29.55;;;11.70;;
64351;SDS011;50680;52.626;-8.668;2022-12-08T06:50:10;31.02;;;13.00;;
64351;SDS011;50680;52.626;-8.668;2022-12-08T06:52:38;30.90;;;12.27;;
64351;SDS011;50680;52.626;-8.668;2022-12-08T06:55:23;28.65;;;11.48;;
64351;SDS011;50680;52.626;-8.668;2022-12-08T06:58:11;28.15;;;11.38;;
64351;SDS011;50680;52.626;-8.668;2022-12-08T07:00:38;29.75;;;13.32;;
64351;SDS011;50680;52.626;-8.668;2022-12-08T07:03:07;29.70;;;13.18;;
64351;SDS011;50680;52.626;-8.668;2022-12-08T07:05:35;24.48;;;11.43;;
64351;SDS011;50680;52.626;-8.668;2022-12-08T07:08:02;30.90;;;12.25;;
64351;SDS011;50680;52.626;-8.668;2022-12-08T07:10:30;25.13;;;11.25;;
64351;SDS011;50680;52.626;-8.668;2022-12-08T07:12:57;25.38;;;11.63;;
64351;SDS011;50680;52.626;-8.668;2022-12-08T07:15:24;22.98;;;12.02;;
64351;SDS011;50680;52.626;-8.668;2022-12-08T07:17:51;26.63;;;11.75;;
64351;SDS011;50680;52.626;-8.668;2022-12-08T07:20:25;24.63;;;11.80;;
64351;SDS011;50680;52.626;-8.668;2022-12-08T07:22:52;25.60;;;11.70;;
64351;SDS011;50680;52.626;-8.668;2022-12-08T07:25:19;26.30;;;11.30;;
64351;SDS011;50680;52.626;-8.668;2022-12-08T07:27:46;26.25;;;10.80;;
64351;SDS011;50680;52.626;-8.668;2022-12-08T07:30:13;20.90;;;11.05;;
64351;SDS011;50680;52.626;-8.668;2022-12-08T07:32:40;20.95;;;10.63;;
64351;SDS011;50680;52.626;-8.668;2022-12-08T07:35:07;26.20;;;11.73;;
64351;SDS011;50680;52.626;-8.668;2022-12-08T07:37:35;21.33;;;10.35;;
64351;SDS011;50680;52.626;-8.668;2022-12-08T07:40:03;24.85;;;11.82;;
64351;SDS011;50680;52.626;-8.668;2022-12-08T07:42:32;24.65;;;10.80;;
64351;SDS011;50680;52.626;-8.668;2022-12-08T07:44:59;23.73;;;10.77;;
64351;SDS011;50680;52.626;-8.668;2022-12-08T07:47:26;23.60;;;10.23;;
64351;SDS011;50680;52.626;-8.668;2022-12-08T07:49:52;22.00;;;9.82;;
64351;SDS011;50680;52.626;-8.668;2022-12-08T07:52:19;22.13;;;11.32;;
64351;SDS011;50680;52.626;-8.668;2022-12-08T07:54:46;22.30;;;10.88;;
64351;SDS011;50680;52.626;-8.668;2022-12-08T07:57:13;21.00;;;10.18;;
64351;SDS011;50680;52.626;-8.668;2022-12-08T07:59:40;27.42;;;11.98;;
64351;SDS011;50680;52.626;-8.668;2022-12-08T08:02:11;23.63;;;11.95;;
64351;SDS011;50680;52.626;-8.668;2022-12-08T08:04:51;24.90;;;11.73;;
64351;SDS011;50680;52.626;-8.668;2022-12-08T08:07:19;30.55;;;13.05;;
64351;SDS011;50680;52.626;-8.668;2022-12-08T08:09:46;32.38;;;13.85;;
64351;SDS011;50680;52.626;-8.668;2022-12-08T08:12:12;53.75;;;15.60;;
64351;SDS011;50680;52.626;-8.668;2022-12-08T08:14:56;32.58;;;13.75;;
64351;SDS011;50680;52.626;-8.668;2022-12-08T08:17:24;27.30;;;12.82;;
64351;SDS011;50680;52.626;-8.668;2022-12-08T08:19:51;32.00;;;13.88;;
64351;SDS011;50680;52.626;-8.668;2022-12-08T08:22:17;28.48;;;12.57;;
64351;SDS011;50680;52.626;-8.668;2022-12-08T08:24:44;29.80;;;13.02;;
64351;SDS011;50680;52.626;-8.668;2022-12-08T08:27:11;29.42;;;14.10;;
64351;SDS011;50680;52.626;-8.668;2022-12-08T08:29:39;31.17;;;13.88;;
64351;SDS011;50680;52.626;-8.668;2022-12-08T08:32:06;31.60;;;13.57;;
64351;SDS011;50680;52.626;-8.668;2022-12-08T08:34:32;28.23;;;13.07;;
64351;SDS011;50680;52.626;-8.668;2022-12-08T08:36:59;33.20;;;14.55;;
64351;SDS011;50680;52.626;-8.668;2022-12-08T08:39:26;36.72;;;14.52;;
64351;SDS011;50680;52.626;-8.668;2022-12-08T08:41:55;35.53;;;15.50;;
64351;SDS011;50680;52.626;-8.668;2022-12-08T08:44:22;37.40;;;16.02;;
64351;SDS011;50680;52.626;-8.668;2022-12-08T08:46:49;39.63;;;15.43;;
64351;SDS011;50680;52.626;-8.668;2022-12-08T08:49:15;37.03;;;16.42;;
64351;SDS011;50680;52.626;-8.668;2022-12-08T08:51:43;34.33;;;15.52;;
64351;SDS011;50680;52.626;-8.668;2022-12-08T08:54:09;37.53;;;16.00;;
64351;SDS011;50680;52.626;-8.668;2022-12-08T08:56:36;33.78;;;15.63;;
64351;SDS011;50680;52.626;-8.668;2022-12-08T08:59:03;34.75;;;15.05;;
64351;SDS011;50680;52.626;-8.668;2022-12-08T09:01:30;38.13;;;16.42;;
64351;SDS011;50680;52.626;-8.668;2022-12-08T09:03:56;41.25;;;18.20;;
64351;SDS011;50680;52.626;-8.668;2022-12-08T09:06:24;50.10;;;20.15;;
64351;SDS011;50680;52.626;-8.668;2022-12-08T09:08:53;54.15;;;22.65;;
64351;SDS011;50680;52.626;-8.668;2022-12-08T09:11:20;57.47;;;23.08;;
64351;SDS011;50680;52.626;-8.668;2022-12-08T09:13:49;64.60;;;24.90;;
64351;SDS011;50680;52.626;-8.668;2022-12-08T09:16:17;64.63;;;25.98;;
64351;SDS011;50680;52.626;-8.668;2022-12-08T09:18:45;64.07;;;25.27;;
64351;SDS011;50680;52.626;-8.668;2022-12-08T09:21:15;67.82;;;24.85;;
64351;SDS011;50680;52.626;-8.668;2022-12-08T09:23:49;57.45;;;21.77;;
64351;SDS011;50680;52.626;-8.668;2022-12-08T09:26:16;58.85;;;23.05;;
64351;SDS011;50680;52.626;-8.668;2022-12-08T09:28:43;60.65;;;24.15;;
64351;SDS011;50680;52.626;-8.668;2022-12-08T09:31:12;55.45;;;23.08;;
64351;SDS011;50680;52.626;-8.668;2022-12-08T09:33:40;68.10;;;22.85;;
64351;SDS011;50680;52.626;-8.668;2022-12-08T09:36:07;59.78;;;22.10;;
64351;SDS011;50680;52.626;-8.668;2022-12-08T09:38:34;46.42;;;18.05;;
64351;SDS011;50680;52.626;-8.668;2022-12-08T09:41:03;41.55;;;18.85;;
64351;SDS011;50680;52.626;-8.668;2022-12-08T09:46:28;44.97;;;18.13;;
64351;SDS011;50680;52.626;-8.668;2022-12-08T09:48:59;38.55;;;16.20;;
64351;SDS011;50680;52.626;-8.668;2022-12-08T09:51:36;34.50;;;15.55;;
64351;SDS011;50680;52.626;-8.668;2022-12-08T09:54:16;34.38;;;15.57;;
64351;SDS011;50680;52.626;-8.668;2022-12-08T09:56:47;36.25;;;15.27;;
64351;SDS011;50680;52.626;-8.668;2022-12-08T09:59:28;31.60;;;13.97;;
64351;SDS011;50680;52.626;-8.668;2022-12-08T10:01:58;32.47;;;14.50;;
64351;SDS011;50680;52.626;-8.668;2022-12-08T10:04:36;34.92;;;15.07;;
64351;SDS011;50680;52.626;-8.668;2022-12-08T10:15:37;34.00;;;15.95;;
64351;SDS011;50680;52.626;-8.668;2022-12-08T10:18:18;30.83;;;14.40;;
64351;SDS011;50680;52.626;-8.668;2022-12-08T10:20:49;29.95;;;14.63;;
64351;SDS011;50680;52.626;-8.668;2022-12-08T10:25:47;50.38;;;22.40;;
64351;SDS011;50680;52.626;-8.668;2022-12-08T10:28:16;35.55;;;15.75;;
64351;SDS011;50680;52.626;-8.668;2022-12-08T10:30:43;43.28;;;20.02;;
64351;SDS011;50680;52.626;-8.668;2022-12-08T10:33:14;39.75;;;20.88;;
64351;SDS011;50680;52.626;-8.668;2022-12-08T10:35:44;37.08;;;18.77;;
64351;SDS011;50680;52.626;-8.668;2022-12-08T10:38:15;42.45;;;20.13;;
64351;SDS011;50680;52.626;-8.668;2022-12-08T10:40:53;44.07;;;22.83;;
64351;SDS011;50680;52.626;-8.668;2022-12-08T10:43:26;34.60;;;17.40;;
64351;SDS011;50680;52.626;-8.668;2022-12-08T10:45:53;36.50;;;16.88;;
64351;SDS011;50680;52.626;-8.668;2022-12-08T10:48:27;37.72;;;17.38;;
64351;SDS011;50680;52.626;-8.668;2022-12-08T10:50:57;50.33;;;19.35;;
64351;SDS011;50680;52.626;-8.668;2022-12-08T10:53:26;45.17;;;19.35;;
64351;SDS011;50680;52.626;-8.668;2022-12-08T10:58:30;46.50;;;19.88;;
64351;SDS011;50680;52.626;-8.668;2022-12-08T11:01:04;52.75;;;22.60;;
64351;SDS011;50680;52.626;-8.668;2022-12-08T11:03:35;61.13;;;25.25;;
64351;SDS011;50680;52.626;-8.668;2022-12-08T11:06:18;75.55;;;32.35;;
64351;SDS011;50680;52.626;-8.668;2022-12-08T11:08:54;54.38;;;21.73;;
64351;SDS011;50680;52.626;-8.668;2022-12-08T11:11:36;48.38;;;19.95;;
64351;SDS011;50680;52.626;-8.668;2022-12-08T11:14:07;59.17;;;22.45;;
64351;SDS011;50680;52.626;-8.668;2022-12-08T11:16:41;46.72;;;20.15;;
64351;SDS011;50680;52.626;-8.668;2022-12-08T11:19:11;56.88;;;21.38;;
64351;SDS011;50680;52.626;-8.668;2022-12-08T11:21:41;52.40;;;23.10;;
64351;SDS011;50680;52.626;-8.668;2022-12-08T11:24:21;53.53;;;23.42;;
64351;SDS011;50680;52.626;-8.668;2022-12-08T11:26:52;60.95;;;25.17;;
64351;SDS011;50680;52.626;-8.668;2022-12-08T11:29:19;56.47;;;25.08;;
64351;SDS011;50680;52.626;-8.668;2022-12-08T11:31:48;66.97;;;27.60;;
64351;SDS011;50680;52.626;-8.668;2022-12-08T11:35:04;80.20;;;28.33;;
64351;SDS011;50680;52.626;-8.668;2022-12-08T11:37:24;75.60;;;29.23;;
64351;SDS011;50680;52.626;-8.668;2022-12-08T11:40:02;73.15;;;29.40;;
64351;SDS011;50680;52.626;-8.668;2022-12-08T11:42:49;73.75;;;29.15;;
64351;SDS011;50680;52.626;-8.668;2022-12-08T11:45:25;80.25;;;32.50;;
64351;SDS011;50680;52.626;-8.668;2022-12-08T11:50:46;90.57;;;25.77;;
64351;SDS011;50680;52.626;-8.668;2022-12-08T11:53:37;102.78;;;27.10;;
64351;SDS011;50680;52.626;-8.668;2022-12-08T11:56:06;115.07;;;29.33;;
64351;SDS011;50680;52.626;-8.668;2022-12-08T11:58:46;127.75;;;28.08;;
64351;SDS011;50680;52.626;-8.668;2022-12-08T12:01:19;98.68;;;33.33;;
64351;SDS011;50680;52.626;-8.668;2022-12-08T12:07:16;74.18;;;28.20;;
64351;SDS011;50680;52.626;-8.668;2022-12-08T12:12:42;82.63;;;29.97;;
64351;SDS011;50680;52.626;-8.668;2022-12-08T12:21:12;56.15;;;22.52;;
64351;SDS011;50680;52.626;-8.668;2022-12-08T12:26:24;48.47;;;22.05;;
64351;SDS011;50680;52.626;-8.668;2022-12-08T12:29:04;43.60;;;20.23;;
64351;SDS011;50680;52.626;-8.668;2022-12-08T12:31:40;48.70;;;22.48;;
64351;SDS011;50680;52.626;-8.668;2022-12-08T12:36:46;35.72;;;16.90;;
64351;SDS011;50680;52.626;-8.668;2022-12-08T12:43:11;30.75;;;14.55;;
64351;SDS011;50680;52.626;-8.668;2022-12-08T12:45:18;36.30;;;18.23;;
64351;SDS011;50680;52.626;-8.668;2022-12-08T12:53:50;26.83;;;14.60;;
64351;SDS011;50680;52.626;-8.668;2022-12-08T12:56:45;23.88;;;12.60;;
64351;SDS011;50680;52.626;-8.668;2022-12-08T13:02:32;28.95;;;13.95;;
64351;SDS011;50680;52.626;-8.668;2022-12-08T13:07:29;27.70;;;14.73;;
64351;SDS011;50680;52.626;-8.668;2022-12-08T13:12:41;34.83;;;16.83;;
64351;SDS011;50680;52.626;-8.668;2022-12-08T13:15:17;33.33;;;15.68;;
64351;SDS011;50680;52.626;-8.668;2022-12-08T13:17:45;31.10;;;16.27;;
64351;SDS011;50680;52.626;-8.668;2022-12-08T13:20:18;31.90;;;15.00;;
64351;SDS011;50680;52.626;-8.668;2022-12-08T13:28:12;31.00;;;14.48;;
64351;SDS011;50680;52.626;-8.668;2022-12-08T13:30:50;27.35;;;13.18;;
64351;SDS011;50680;52.626;-8.668;2022-12-08T13:36:40;29.67;;;14.57;;
64351;SDS011;50680;52.626;-8.668;2022-12-08T13:38:54;28.75;;;14.23;;
64351;SDS011;50680;52.626;-8.668;2022-12-08T13:41:57;29.10;;;15.07;;
64351;SDS011;50680;52.626;-8.668;2022-12-08T13:44:45;36.10;;;15.60;;
64351;SDS011;50680;52.626;-8.668;2022-12-08T13:47:53;27.77;;;14.55;;
64351;SDS011;50680;52.626;-8.668;2022-12-08T13:50:46;29.75;;;15.05;;
64351;SDS011;50680;52.626;-8.668;2022-12-08T13:53:39;27.77;;;13.27;;
64351;SDS011;50680;52.626;-8.668;2022-12-08T13:56:30;25.80;;;14.25;;
64351;SDS011;50680;52.626;-8.668;2022-12-08T13:59:25;33.95;;;15.82;;
64351;SDS011;50680;52.626;-8.668;2022-12-08T14:01:57;24.75;;;13.23;;
64351;SDS011;50680;52.626;-8.668;2022-12-08T14:04:36;21.08;;;11.40;;
64351;SDS011;50680;52.626;-8.668;2022-12-08T14:07:23;16.15;;;8.63;;
64351;SDS011;50680;52.626;-8.668;2022-12-08T14:09:50;20.60;;;9.80;;
64351;SDS011;50680;52.626;-8.668;2022-12-08T14:14:50;24.58;;;12.55;;
64351;SDS011;50680;52.626;-8.668;2022-12-08T14:17:30;26.15;;;12.70;;
64351;SDS011;50680;52.626;-8.668;2022-12-08T14:20:00;22.80;;;11.73;;
64351;SDS011;50680;52.626;-8.668;2022-12-08T14:22:39;24.17;;;11.13;;
64351;SDS011;50680;52.626;-8.668;2022-12-08T14:25:10;27.98;;;12.05;;
64351;SDS011;50680;52.626;-8.668;2022-12-08T14:27:40;23.95;;;11.48;;
64351;SDS011;50680;52.626;-8.668;2022-12-08T14:32:47;27.70;;;13.07;;
64351;SDS011;50680;52.626;-8.668;2022-12-08T14:35:19;27.80;;;13.48;;
64351;SDS011;50680;52.626;-8.668;2022-12-08T14:37:47;27.25;;;13.43;;
64351;SDS011;50680;52.626;-8.668;2022-12-08T14:51:11;37.53;;;15.57;;
64351;SDS011;50680;52.626;-8.668;2022-12-08T14:56:30;21.98;;;11.15;;
64351;SDS011;50680;52.626;-8.668;2022-12-08T15:01:45;18.55;;;8.88;;
64351;SDS011;50680;52.626;-8.668;2022-12-08T15:04:16;12.07;;;6.72;;
64351;SDS011;50680;52.626;-8.668;2022-12-08T15:09:28;6.05;;;3.58;;
64351;SDS011;50680;52.626;-8.668;2022-12-08T15:15:01;5.72;;;4.07;;
64351;SDS011;50680;52.626;-8.668;2022-12-08T15:20:21;11.52;;;4.88;;
64351;SDS011;50680;52.626;-8.668;2022-12-08T15:23:00;9.13;;;5.03;;
64351;SDS011;50680;52.626;-8.668;2022-12-08T15:25:28;10.27;;;5.88;;
64351;SDS011;50680;52.626;-8.668;2022-12-08T15:27:55;10.95;;;6.47;;
64351;SDS011;50680;52.626;-8.668;2022-12-08T15:30:23;14.20;;;7.15;;
64351;SDS011;50680;52.626;-8.668;2022-12-08T15:32:54;40.78;;;21.08;;
64351;SDS011;50680;52.626;-8.668;2022-12-08T15:35:22;21.58;;;11.88;;
64351;SDS011;50680;52.626;-8.668;2022-12-08T15:37:49;16.77;;;9.27;;
64351;SDS011;50680;52.626;-8.668;2022-12-08T15:40:17;23.95;;;12.30;;
64351;SDS011;50680;52.626;-8.668;2022-12-08T15:42:45;20.73;;;9.70;;
64351;SDS011;50680;52.626;-8.668;2022-12-08T15:45:13;22.00;;;11.93;;
64351;SDS011;50680;52.626;-8.668;2022-12-08T15:47:41;29.15;;;14.48;;
64351;SDS011;50680;52.626;-8.668;2022-12-08T15:50:13;30.23;;;13.73;;
64351;SDS011;50680;52.626;-8.668;2022-12-08T15:52:41;25.73;;;12.38;;
64351;SDS011;50680;52.626;-8.668;2022-12-08T15:55:16;25.75;;;10.75;;
64351;SDS011;50680;52.626;-8.668;2022-12-08T15:57:45;25.90;;;10.95;;
64351;SDS011;50680;52.626;-8.668;2022-12-08T16:00:35;28.85;;;13.20;;
64351;SDS011;50680;52.626;-8.668;2022-12-08T16:03:29;37.47;;;16.90;;
64351;SDS011;50680;52.626;-8.668;2022-12-08T16:06:17;38.13;;;17.77;;
64351;SDS011;50680;52.626;-8.668;2022-12-08T16:09:14;37.65;;;16.98;;
64351;SDS011;50680;52.626;-8.668;2022-12-08T16:11:44;24.98;;;13.45;;
64351;SDS011;50680;52.626;-8.668;2022-12-08T16:14:34;22.27;;;11.98;;
64351;SDS011;50680;52.626;-8.668;2022-12-08T16:17:21;21.75;;;11.45;;
64351;SDS011;50680;52.626;-8.668;2022-12-08T16:19:48;36.00;;;15.63;;
64351;SDS011;50680;52.626;-8.668;2022-12-08T16:22:19;31.65;;;15.52;;
64351;SDS011;50680;52.626;-8.668;2022-12-08T16:25:07;43.60;;;18.40;;
64351;SDS011;50680;52.626;-8.668;2022-12-08T16:27:53;53.15;;;23.33;;
64351;SDS011;50680;52.626;-8.668;2022-12-08T16:30:31;48.58;;;22.17;;
64351;SDS011;50680;52.626;-8.668;2022-12-08T16:32:58;42.45;;;20.40;;